createdAt,value
2023-03-30T00:01:15.461Z,101510.94
2023-03-30T00:03:47.795Z,101517.16
2023-03-30T00:06:23.346Z,101518.94
2023-03-30T00:08:58.786Z,101524.25
2023-03-30T00:11:27.610Z,101526.06
2023-03-30T00:13:56.443Z,101516.28
2023-03-30T00:16:24.974Z,101517.34
2023-03-30T00:18:53.705Z,101512.03
2023-03-30T00:21:22.158Z,101514.59
2023-03-30T00:23:52.562Z,101505.72
2023-03-30T00:26:21.552Z,101498.63
2023-03-30T00:28:52.422Z,101505.72
2023-03-30T00:31:21.320Z,101502.22
2023-03-30T00:33:51.007Z,101507.56
2023-03-30T00:36:22.584Z,101503.06
2023-03-30T00:38:51.432Z,101498.81
2023-03-30T00:41:19.869Z,101499.66
2023-03-30T00:44:07.167Z,101502.22
2023-03-30T00:46:35.715Z,101492.56
2023-03-30T00:49:08.863Z,101487.34
2023-03-30T00:51:39.251Z,101490.00
2023-03-30T00:54:12.999Z,101488.19
2023-03-30T00:56:41.631Z,101482.03
2023-03-30T00:59:10.615Z,101484.88
2023-03-30T01:01:40.919Z,101486.59
2023-03-30T01:04:11.294Z,101483.94
2023-03-30T01:06:40.722Z,101489.16
2023-03-30T01:09:09.743Z,101489.25
2023-03-30T01:11:38.770Z,101493.75
2023-03-30T01:14:08.782Z,101476.91
2023-03-30T01:16:54.068Z,101477.78
2023-03-30T01:20:13.091Z,101474.25
2023-03-30T01:23:11.109Z,101462.88
2023-03-30T01:26:07.234Z,101473.41
2023-03-30T01:28:51.976Z,101472.56
2023-03-30T01:31:40.075Z,101476.91
2023-03-30T01:34:36.224Z,101473.50
2023-03-30T01:37:26.397Z,101460.31
2023-03-30T01:40:19.248Z,101473.50
2023-03-30T01:43:10.358Z,101473.50
2023-03-30T01:46:16.787Z,101473.50
2023-03-30T01:49:06.708Z,101474.38
2023-03-30T01:51:41.157Z,101471.81
2023-03-30T01:54:23.188Z,101463.84
2023-03-30T01:56:55.843Z,101465.75
2023-03-30T01:59:51.957Z,101459.38
2023-03-30T02:02:22.991Z,101463.84
2023-03-30T02:04:53.873Z,101454.16
2023-03-30T02:07:25.677Z,101457.78
2023-03-30T02:09:56.747Z,101461.19
2023-03-30T02:12:25.427Z,101459.47
2023-03-30T02:14:54.089Z,101457.66
2023-03-30T02:17:23.706Z,101454.16
2023-03-30T02:19:54.768Z,101449.91
2023-03-30T02:22:24.031Z,101451.59
2023-03-30T02:24:56.253Z,101455.13
2023-03-30T02:27:25.564Z,101449.91
2023-03-30T02:29:56.748Z,101460.56
2023-03-30T02:32:33.940Z,101456.06
2023-03-30T02:35:48.995Z,101462.38
2023-03-30T02:38:50.760Z,101456.19
2023-03-30T02:41:33.047Z,101444.78
2023-03-30T02:44:34.370Z,101442.03
2023-03-30T02:47:32.286Z,101445.53
2023-03-30T02:50:36.322Z,101443.84
2023-03-30T02:53:37.770Z,101446.50
2023-03-30T02:56:38.072Z,101447.34
2023-03-30T02:59:34.216Z,101445.66
2023-03-30T03:02:18.603Z,101441.28
2023-03-30T03:04:50.579Z,101436.94
2023-03-30T03:07:38.888Z,101437.78
2023-03-30T03:10:08.754Z,101438.63
2023-03-30T03:12:37.301Z,101440.56
2023-03-30T03:15:06.842Z,101436.94
2023-03-30T03:17:39.490Z,101437.91
2023-03-30T03:20:10.832Z,101428.19
2023-03-30T03:22:39.268Z,101430.13
2023-03-30T03:25:08.900Z,101433.53
2023-03-30T03:27:56.079Z,101426.31
2023-03-30T03:30:28.341Z,101429.91
2023-03-30T03:33:23.078Z,101425.69
2023-03-30T03:36:08.109Z,101438.84
2023-03-30T03:38:41.328Z,101429.19
2023-03-30T03:41:10.044Z,101434.50
2023-03-30T03:43:44.540Z,101437.16
2023-03-30T03:46:14.143Z,101434.50
2023-03-30T03:48:43.062Z,101435.44
2023-03-30T03:51:11.745Z,101437.16
2023-03-30T03:53:41.042Z,101428.34
2023-03-30T03:56:15.074Z,101434.59
2023-03-30T03:58:43.461Z,101446.22
2023-03-30T04:01:14.617Z,101446.22
2023-03-30T04:03:43.086Z,101450.66
2023-03-30T04:06:11.746Z,101445.34
2023-03-30T04:08:40.175Z,101445.47
2023-03-30T04:11:34.978Z,101439.06
2023-03-30T04:14:26.687Z,101447.16
2023-03-30T04:17:15.066Z,101437.34
2023-03-30T04:20:06.197Z,101436.63
2023-03-30T04:22:50.598Z,101435.69
2023-03-30T04:25:42.044Z,101430.34
2023-03-30T04:28:42.016Z,101420.81
2023-03-30T04:31:47.324Z,101413.66
2023-03-30T04:34:22.063Z,101415.47
2023-03-30T04:37:30.547Z,101418.00
2023-03-30T04:40:17.877Z,101420.81
2023-03-30T04:43:23.170Z,101415.47
2023-03-30T04:46:15.086Z,101406.63
2023-03-30T04:49:00.960Z,101412.81
2023-03-30T04:51:32.509Z,101408.34
2023-03-30T04:54:12.147Z,101409.28
2023-03-30T04:57:19.488Z,101413.66
2023-03-30T05:00:08.376Z,101408.34
2023-03-30T05:03:11.350Z,101399.63
2023-03-30T05:06:03.449Z,101399.53
2023-03-30T05:09:04.690Z,101404.94
2023-03-30T05:11:51.782Z,101409.28
2023-03-30T05:14:31.762Z,101408.44
2023-03-30T05:17:23.564Z,101416.44
2023-03-30T05:20:01.140Z,101415.59
2023-03-30T05:22:47.290Z,101420.91
2023-03-30T05:25:39.244Z,101428.88
2023-03-30T05:28:32.355Z,101421.00
2023-03-30T05:31:30.813Z,101422.81
2023-03-30T05:34:22.529Z,101418.25
2023-03-30T05:37:26.873Z,101424.50
2023-03-30T05:40:18.234Z,101419.28
2023-03-30T05:43:05.392Z,101427.16
2023-03-30T05:45:57.400Z,101425.47
2023-03-30T05:48:37.381Z,101414.59
2023-03-30T05:51:20.948Z,101415.59
2023-03-30T05:54:12.951Z,101414.72
2023-03-30T05:57:00.323Z,101415.59
2023-03-30T05:59:45.694Z,101418.34
2023-03-30T06:02:24.856Z,101420.03
2023-03-30T06:05:02.110Z,101429.72
2023-03-30T06:07:30.959Z,101437.78
2023-03-30T06:10:01.863Z,101439.50
2023-03-30T06:12:32.139Z,101435.25
2023-03-30T06:15:03.404Z,101439.72
2023-03-30T06:17:53.033Z,101437.06
2023-03-30T06:20:24.918Z,101444.94
2023-03-30T06:22:53.661Z,101449.28
2023-03-30T06:25:26.180Z,101457.16
2023-03-30T06:27:58.054Z,101463.44
2023-03-30T06:30:28.510Z,101463.44
2023-03-30T06:33:02.470Z,101460.78
2023-03-30T06:35:51.162Z,101468.75
2023-03-30T06:38:23.101Z,101475.84
2023-03-30T06:40:54.172Z,101467.88
2023-03-30T06:43:26.471Z,101470.66
2023-03-30T06:46:21.592Z,101470.66
2023-03-30T06:48:52.637Z,101467.88
2023-03-30T06:51:36.103Z,101465.34
2023-03-30T06:54:06.651Z,101468.00
2023-03-30T06:56:35.921Z,101467.88
2023-03-30T06:59:10.061Z,101478.66
2023-03-30T07:01:59.767Z,101486.50
2023-03-30T07:04:47.159Z,101491.94
2023-03-30T07:07:28.390Z,101489.28
2023-03-30T07:09:57.058Z,101487.56
2023-03-30T07:12:26.266Z,101484.81
2023-03-30T07:14:54.904Z,101484.06
2023-03-30T07:17:26.831Z,101481.50
2023-03-30T07:19:55.992Z,101477.16
2023-03-30T07:22:25.367Z,101495.78
2023-03-30T07:24:54.741Z,101482.34
2023-03-30T07:27:25.396Z,101486.72
2023-03-30T07:30:04.618Z,101492.88
2023-03-30T07:32:40.611Z,101485.00
2023-03-30T07:35:10.685Z,101492.88
2023-03-30T07:37:40.307Z,101484.91
2023-03-30T07:40:10.466Z,101488.41
2023-03-30T07:42:42.425Z,101484.81
2023-03-30T07:45:13.565Z,101486.72
2023-03-30T07:47:45.078Z,101491.19
2023-03-30T07:50:13.886Z,101489.38
2023-03-30T07:52:43.813Z,101483.22
2023-03-30T07:55:14.018Z,101480.56
2023-03-30T07:57:49.838Z,101482.06
2023-03-30T08:00:19.434Z,101486.50
2023-03-30T08:03:07.177Z,101480.34
2023-03-30T08:05:37.972Z,101489.16
2023-03-30T08:08:18.227Z,101487.38
2023-03-30T08:10:46.822Z,101486.63
2023-03-30T08:13:15.893Z,101491.06
2023-03-30T08:15:45.989Z,101494.59
2023-03-30T08:18:15.429Z,101485.75
2023-03-30T08:20:44.214Z,101483.09
2023-03-30T08:23:13.900Z,101489.38
2023-03-30T08:25:44.170Z,101485.75
2023-03-30T08:28:14.827Z,101483.09
2023-03-30T08:30:43.342Z,101492.69
2023-03-30T08:33:13.797Z,101487.38
2023-03-30T08:35:48.279Z,101487.56
2023-03-30T08:38:17.963Z,101492.78
2023-03-30T08:40:47.805Z,101493.84
2023-03-30T08:43:53.525Z,101494.59
2023-03-30T08:46:22.282Z,101502.56
2023-03-30T08:48:51.311Z,101497.38
2023-03-30T08:51:27.903Z,101489.28
2023-03-30T08:54:02.759Z,101486.09
2023-03-30T08:56:59.852Z,101497.38
2023-03-30T08:59:58.082Z,101502.69
2023-03-30T09:02:39.238Z,101495.66
2023-03-30T09:05:27.603Z,101492.88
2023-03-30T09:08:23.969Z,101497.47
2023-03-30T09:10:58.793Z,101507.03
2023-03-30T09:13:34.533Z,101499.28
2023-03-30T09:16:44.161Z,101498.44
2023-03-30T09:19:27.581Z,101502.88
2023-03-30T09:21:56.438Z,101495.03
2023-03-30T09:24:28.182Z,101503.75
2023-03-30T09:27:08.423Z,101505.44
2023-03-30T09:29:49.355Z,101509.91
2023-03-30T09:32:40.915Z,101509.06
2023-03-30T09:35:16.358Z,101515.41
2023-03-30T09:37:45.261Z,101510.84
2023-03-30T09:41:01.537Z,101508.19
2023-03-30T09:43:48.590Z,101505.66
2023-03-30T09:46:17.383Z,101501.94
2023-03-30T09:48:48.197Z,101505.66
2023-03-30T09:51:32.069Z,101495.22
2023-03-30T09:54:05.351Z,101486.28
2023-03-30T09:56:51.875Z,101483.63
2023-03-30T09:59:38.249Z,101483.53
2023-03-30T10:02:18.753Z,101478.31
2023-03-30T10:04:53.907Z,101473.97
2023-03-30T10:07:27.360Z,101479.19
2023-03-30T10:09:56.455Z,101473.75
2023-03-30T10:12:28.974Z,101473.00
2023-03-30T10:15:01.752Z,101475.53
2023-03-30T10:17:31.535Z,101464.81
2023-03-30T10:20:31.016Z,101465.66
2023-03-30T10:23:09.226Z,101465.88
2023-03-30T10:25:38.744Z,101463.97
2023-03-30T10:28:13.855Z,101467.47
2023-03-30T10:33:44.595Z,101463.00
2023-03-30T10:36:15.212Z,101460.34
2023-03-30T10:38:44.167Z,101460.34
2023-03-30T10:41:22.943Z,101447.91
2023-03-30T10:43:51.870Z,101440.88
2023-03-30T10:46:23.500Z,101437.59
2023-03-30T10:49:47.675Z,101439.94
2023-03-30T10:53:09.796Z,101419.63
2023-03-30T10:56:01.568Z,101429.31
2023-03-30T10:58:43.757Z,101410.56
2023-03-30T11:01:53.418Z,101414.94
2023-03-30T11:04:43.576Z,101407.59
2023-03-30T11:07:32.863Z,101403.97
2023-03-30T11:10:10.975Z,101399.53
2023-03-30T11:12:43.445Z,101399.41
2023-03-30T11:15:42.517Z,101393.13
2023-03-30T11:18:39.970Z,101396.53
2023-03-30T11:21:36.524Z,101409.72
2023-03-30T11:24:20.182Z,101409.59
2023-03-30T11:26:53.790Z,101408.00
2023-03-30T11:29:30.536Z,101422.03
2023-03-30T11:32:32.048Z,101409.72
2023-03-30T11:35:11.149Z,101401.63
2023-03-30T11:38:14.356Z,101406.09
2023-03-30T11:40:46.584Z,101406.94
2023-03-30T11:43:26.609Z,101398.34
2023-03-30T11:46:08.928Z,101389.50
2023-03-30T11:49:02.640Z,101392.69
2023-03-30T11:52:29.066Z,101381.84
2023-03-30T11:55:39.832Z,101369.88
2023-03-30T11:58:34.852Z,101365.94
2023-03-30T12:01:12.476Z,101363.19
2023-03-30T12:03:44.220Z,101365.00
2023-03-30T12:06:34.418Z,101366.91
2023-03-30T12:09:26.622Z,101374.78
2023-03-30T12:12:16.518Z,101359.03
2023-03-30T12:14:50.297Z,101348.31
2023-03-30T12:17:34.042Z,101354.34
2023-03-30T12:20:09.676Z,101346.38
2023-03-30T12:22:50.755Z,101343.63
2023-03-30T12:25:31.171Z,101340.94
2023-03-30T12:28:04.614Z,101332.97
2023-03-30T12:30:44.298Z,101343.47
2023-03-30T12:33:37.399Z,101329.75
2023-03-30T12:36:26.478Z,101330.94
2023-03-30T12:39:02.677Z,101321.78
2023-03-30T12:41:42.257Z,101326.13
2023-03-30T12:44:37.007Z,101313.06
2023-03-30T12:47:22.846Z,101309.22
2023-03-30T12:50:32.015Z,101304.72
2023-03-30T12:53:38.689Z,101310.88
2023-03-30T12:56:29.355Z,101310.69
2023-03-30T12:59:27.398Z,101301.59
2023-03-30T13:02:48.809Z,101294.97
2023-03-30T13:05:27.591Z,101303.19
2023-03-30T13:07:56.551Z,101307.03
2023-03-30T13:10:31.230Z,101300.75
2023-03-30T13:13:02.088Z,101301.72
2023-03-30T13:15:33.147Z,101286.63
2023-03-30T13:18:14.672Z,101281.91
2023-03-30T13:20:49.143Z,101287.09
2023-03-30T13:23:21.008Z,101281.47
2023-03-30T13:26:06.363Z,101276.16
2023-03-30T13:29:00.269Z,101271.66
2023-03-30T13:31:46.598Z,101262.06
2023-03-30T13:34:32.851Z,101254.59
2023-03-30T13:37:10.797Z,101249.06
2023-03-30T13:40:39.648Z,101234.88
2023-03-30T13:43:34.069Z,101232.22
2023-03-30T13:46:29.004Z,101227.78
2023-03-30T13:49:36.965Z,101231.91
2023-03-30T13:52:23.572Z,101228.97
2023-03-30T13:54:52.127Z,101227.06
2023-03-30T13:57:31.702Z,101216.41
2023-03-30T14:00:25.675Z,101215.56
2023-03-30T14:02:54.597Z,101215.56
2023-03-30T14:05:26.626Z,101202.63
2023-03-30T14:07:58.889Z,101208.16
2023-03-30T14:10:27.472Z,101206.50
2023-03-30T14:12:57.254Z,101195.22
2023-03-30T14:15:36.071Z,101193.50
2023-03-30T14:18:05.669Z,101185.91
2023-03-30T14:20:46.972Z,101194.97
2023-03-30T14:23:41.469Z,101191.44
2023-03-30T14:26:25.113Z,101177.56
2023-03-30T14:29:04.251Z,101184.56
2023-03-30T14:31:40.682Z,101180.44
2023-03-30T14:34:32.771Z,101167.03
2023-03-30T14:37:04.788Z,101165.41
2023-03-30T14:39:38.643Z,101144.13
2023-03-30T14:42:22.067Z,101132.66
2023-03-30T14:44:53.514Z,101118.50
2023-03-30T14:47:26.885Z,101108.00
2023-03-30T14:50:01.381Z,101100.84
2023-03-30T14:52:39.643Z,101124.69
2023-03-30T14:55:19.775Z,101123.72
2023-03-30T14:57:48.462Z,101126.88
2023-03-30T15:00:22.933Z,101120.22
2023-03-30T15:03:00.960Z,101123.72
2023-03-30T15:05:41.960Z,101119.88
2023-03-30T15:08:27.398Z,101105.84
2023-03-30T15:10:58.992Z,101107.53
2023-03-30T15:13:38.497Z,101098.34
2023-03-30T15:16:07.699Z,101089.63
2023-03-30T15:18:36.313Z,101102.81
2023-03-30T15:21:06.009Z,101120.72
2023-03-30T15:23:39.019Z,101112.13
2023-03-30T15:26:08.307Z,101102.69
2023-03-30T15:28:46.169Z,101109.09
2023-03-30T15:31:16.541Z,101106.56
2023-03-30T15:33:53.435Z,101105.09
2023-03-30T15:36:25.514Z,101111.25
2023-03-30T15:38:56.569Z,101111.38
2023-03-30T15:41:57.076Z,101099.06
2023-03-30T15:44:25.557Z,101092.13
2023-03-30T15:46:57.916Z,101085.03
2023-03-30T15:49:50.815Z,101065.53
2023-03-30T15:52:32.645Z,101074.00
2023-03-30T15:55:19.770Z,101078.13
2023-03-30T15:57:49.237Z,101077.28
2023-03-30T16:00:23.325Z,101073.88
2023-03-30T16:02:59.980Z,101071.34
2023-03-30T16:05:32.063Z,101058.88
2023-03-30T16:08:01.057Z,101059.88
2023-03-30T16:10:31.836Z,101069.53
2023-03-30T16:13:01.597Z,101066.84
2023-03-30T16:15:32.075Z,101054.53
2023-03-30T16:18:01.291Z,101059.88
2023-03-30T16:20:31.817Z,101068.78
2023-03-30T16:23:00.778Z,101063.47
2023-03-30T16:28:01.619Z,101052.00
2023-03-30T16:30:35.238Z,101043.28
2023-03-30T16:33:04.684Z,101037.97
2023-03-30T16:35:33.543Z,101044.28
2023-03-30T16:38:02.620Z,101038.09
2023-03-30T16:40:56.597Z,101051.38
2023-03-30T16:43:27.420Z,101052.25
2023-03-30T16:45:56.122Z,101051.38
2023-03-30T16:48:27.250Z,101048.72
2023-03-30T16:50:57.209Z,101036.88
2023-03-30T16:53:26.393Z,101038.09
2023-03-30T16:55:55.099Z,101048.00
2023-03-30T16:58:24.399Z,101030.59
2023-03-30T17:00:56.459Z,101026.97
2023-03-30T17:03:25.549Z,101033.13
2023-03-30T17:05:54.288Z,101039.28
2023-03-30T17:08:28.340Z,101038.34
2023-03-30T17:11:01.335Z,101033.25
2023-03-30T17:13:30.924Z,101034.38
2023-03-30T17:16:01.332Z,101019.47
2023-03-30T17:18:30.456Z,101018.63
2023-03-30T17:21:00.780Z,101020.44
2023-03-30T17:23:32.422Z,101026.72
2023-03-30T17:26:02.007Z,101017.78
2023-03-30T17:28:36.108Z,101017.78
2023-03-30T17:31:09.932Z,101023.09
2023-03-30T17:33:40.240Z,101016.09
2023-03-30T17:36:16.986Z,101023.09
2023-03-30T17:38:46.338Z,101018.75
2023-03-30T17:41:15.954Z,101019.72
2023-03-30T17:43:44.931Z,101012.69
2023-03-30T17:46:14.220Z,101017.78
2023-03-30T17:48:43.178Z,101016.94
2023-03-30T17:51:11.708Z,101022.28
2023-03-30T17:53:40.762Z,101015.25
2023-03-30T17:56:14.220Z,101011.63
2023-03-30T17:58:43.216Z,101012.47
2023-03-30T18:01:13.251Z,101009.09
2023-03-30T18:03:42.886Z,101015.25
2023-03-30T18:06:11.970Z,101014.28
2023-03-30T18:08:41.186Z,101010.03
2023-03-30T18:11:09.766Z,101022.28
2023-03-30T18:13:38.838Z,101018.03
2023-03-30T18:16:07.632Z,101019.72
2023-03-30T18:18:36.681Z,101021.41
2023-03-30T18:21:06.976Z,101025.78
2023-03-30T18:23:36.296Z,101030.38
2023-03-30T18:26:12.209Z,101038.22
2023-03-30T18:28:44.300Z,101037.34
2023-03-30T18:31:13.179Z,101037.34
2023-03-30T18:33:42.418Z,101035.69
2023-03-30T18:36:13.235Z,101031.31
2023-03-30T18:38:42.747Z,101028.44
2023-03-30T18:41:12.723Z,101035.69
2023-03-30T18:43:41.723Z,101036.41
2023-03-30T18:46:11.840Z,101023.34
2023-03-30T18:48:40.872Z,101023.94
2023-03-30T18:51:11.193Z,101014.28
2023-03-30T18:53:40.319Z,101017.06
2023-03-30T18:56:11.711Z,101012.69
2023-03-30T18:58:42.249Z,101017.06
2023-03-30T19:01:13.629Z,101017.91
2023-03-30T19:03:44.975Z,101021.41
2023-03-30T19:06:16.751Z,101014.41
2023-03-30T19:08:46.651Z,101021.50
2023-03-30T19:11:23.383Z,101028.44
2023-03-30T19:13:52.783Z,101026.72
2023-03-30T19:16:22.908Z,101033.75
2023-03-30T19:18:53.885Z,101028.19
2023-03-30T19:21:22.541Z,101024.31
2023-03-30T19:23:51.853Z,101026.00
2023-03-30T19:26:21.346Z,101023.47
2023-03-30T19:28:50.814Z,101022.00
2023-03-30T19:31:19.521Z,101018.63
2023-03-30T19:33:48.935Z,101021.41
2023-03-30T19:36:17.551Z,101015.25
2023-03-30T19:38:46.865Z,101027.81
2023-03-30T19:41:15.659Z,101032.28
2023-03-30T19:43:45.757Z,101029.63
2023-03-30T19:46:14.574Z,101028.91
2023-03-30T19:48:43.542Z,101038.44
2023-03-30T19:51:12.436Z,101042.06
2023-03-30T19:53:42.542Z,101042.94
2023-03-30T19:56:11.647Z,101046.44
2023-03-30T19:58:40.833Z,101049.19
2023-03-30T20:01:10.005Z,101051.03
2023-03-30T20:03:39.187Z,101054.53
2023-03-30T20:06:11.943Z,101049.31
2023-03-30T20:08:41.257Z,101048.47
2023-03-30T20:11:10.943Z,101047.53
2023-03-30T20:13:45.780Z,101049.47
2023-03-30T20:16:20.669Z,101052.13
2023-03-30T20:18:51.897Z,101049.31
2023-03-30T20:21:21.897Z,101057.28
2023-03-30T20:23:51.112Z,101056.44
2023-03-30T20:26:19.746Z,101053.78
2023-03-30T20:28:48.965Z,101049.47
2023-03-30T20:31:17.573Z,101057.44
2023-03-30T20:34:55.487Z,101056.56
2023-03-30T20:37:24.337Z,101055.63
2023-03-30T20:39:53.353Z,101063.59
2023-03-30T20:42:26.632Z,101061.03
2023-03-30T20:44:55.961Z,101051.38
2023-03-30T20:47:26.364Z,101057.44
2023-03-30T20:49:55.188Z,101055.72
2023-03-30T20:52:24.159Z,101056.56
2023-03-30T20:54:53.045Z,101062.75
2023-03-30T20:57:21.748Z,101053.91
2023-03-30T20:59:52.878Z,101054.03
2023-03-30T21:02:21.332Z,101058.38
2023-03-30T21:04:50.609Z,101063.59
2023-03-30T21:07:19.099Z,101061.88
2023-03-30T21:09:47.992Z,101049.47
2023-03-30T21:12:16.469Z,101058.38
2023-03-30T21:14:46.132Z,101055.72
2023-03-30T21:17:14.671Z,101055.00
2023-03-30T21:19:43.578Z,101055.84
2023-03-30T21:22:11.977Z,101054.03
2023-03-30T21:24:41.029Z,101057.53
2023-03-30T21:27:09.348Z,101050.50
2023-03-30T21:29:38.143Z,101061.16
2023-03-30T21:32:06.785Z,101053.19
2023-03-30T21:34:35.568Z,101052.34
2023-03-30T21:37:04.124Z,101050.63
2023-03-30T21:39:33.117Z,101054.03
2023-03-30T21:42:01.566Z,101047.97
2023-03-30T21:44:30.423Z,101047.97
2023-03-30T21:46:58.901Z,101055.94
2023-03-30T21:49:27.782Z,101052.44
2023-03-30T21:51:56.345Z,101051.59
2023-03-30T21:54:25.125Z,101043.63
2023-03-30T21:56:53.512Z,101040.25
2023-03-30T21:59:22.534Z,101049.91
2023-03-30T22:01:50.940Z,101053.44
2023-03-30T22:04:19.607Z,101048.09
2023-03-30T22:06:48.042Z,101041.91
2023-03-30T22:09:16.979Z,101044.59
2023-03-30T22:11:45.392Z,101046.28
2023-03-30T22:14:14.522Z,101043.75
2023-03-30T22:16:42.967Z,101043.75
2023-03-30T22:19:11.837Z,101039.41
2023-03-30T22:21:40.322Z,101039.41
2023-03-30T22:24:11.321Z,101032.38
2023-03-30T22:26:40.583Z,101023.56
2023-03-30T22:29:09.486Z,101016.31
2023-03-30T22:31:37.854Z,101011.00
2023-03-30T22:34:07.494Z,101001.31
2023-03-30T22:36:35.942Z,100997.81
2023-03-30T22:39:04.663Z,101011.94
2023-03-30T22:41:33.022Z,101016.44
2023-03-30T22:44:02.037Z,101017.28
2023-03-30T22:46:30.680Z,101021.75
2023-03-30T22:49:00.459Z,101023.56
2023-03-30T22:51:28.912Z,101004.13
2023-03-30T22:53:59.539Z,101015.59
2023-03-30T22:56:28.748Z,100994.53
2023-03-30T22:58:58.164Z,101001.56
2023-03-30T23:01:29.275Z,100990.94
2023-03-30T23:03:59.833Z,101002.41
2023-03-30T23:06:28.398Z,101003.25
2023-03-30T23:08:57.309Z,101006.88
2023-03-30T23:11:26.628Z,101003.25
2023-03-30T23:13:56.125Z,100985.63
2023-03-30T23:16:24.676Z,100981.25
2023-03-30T23:18:53.390Z,100982.22
2023-03-30T23:21:22.493Z,100990.22
2023-03-30T23:23:51.608Z,101002.53
2023-03-30T23:26:20.008Z,101003.25
2023-03-30T23:28:49.192Z,101004.22
2023-03-30T23:31:19.231Z,100999.97
2023-03-30T23:33:48.042Z,100999.88
2023-03-30T23:36:17.483Z,101002.53
2023-03-30T23:38:47.013Z,100993.72
2023-03-30T23:41:18.325Z,101007.00
2023-03-30T23:43:47.220Z,100999.03
2023-03-30T23:46:16.429Z,101000.84
2023-03-30T23:48:45.203Z,101003.50
2023-03-30T23:51:13.696Z,100997.31
2023-03-30T23:53:42.499Z,101000.97
2023-03-30T23:56:17.779Z,101007.00
2023-03-30T23:58:46.704Z,101000.97
